sensor_id;sensor_type;location;lat;lon;timestamp;pressure;altitude;pressure_sealevel;temperature;humidity
75668;BME280;64266;48.798;44.756;2023-03-14T00:01:38;102662.38;;;3.63;53.53
75668;BME280;64266;48.798;44.756;2023-03-14T00:06:40;102666.13;;;3.49;54.05
75668;BME280;64266;48.798;44.756;2023-03-14T00:12:02;102677.88;;;3.55;54.44
75668;BME280;64266;48.798;44.756;2023-03-14T00:17:26;102672.94;;;3.41;54.06
75668;BME280;64266;48.798;44.756;2023-03-14T00:22:48;102675.56;;;3.29;54.50
75668;BME280;64266;48.798;44.756;2023-03-14T00:28:09;102691.16;;;3.42;54.17
75668;BME280;64266;48.798;44.756;2023-03-14T00:33:33;102694.75;;;3.41;54.92
75668;BME280;64266;48.798;44.756;2023-03-14T00:38:56;102672.19;;;3.07;54.82
75668;BME280;64266;48.798;44.756;2023-03-14T00:44:17;102695.34;;;3.34;55.60
75668;BME280;64266;48.798;44.756;2023-03-14T00:49:38;102712.41;;;3.28;55.24
75668;BME280;64266;48.798;44.756;2023-03-14T00:55:00;102663.03;;;3.01;54.94
75668;BME280;64266;48.798;44.756;2023-03-14T01:00:04;102726.13;;;3.32;54.81
75668;BME280;64266;48.798;44.756;2023-03-14T01:05:09;102677.19;;;2.99;55.43
75668;BME280;64266;48.798;44.756;2023-03-14T01:10:12;102700.91;;;2.97;54.87
75668;BME280;64266;48.798;44.756;2023-03-14T01:15:16;102730.53;;;3.09;54.59
75668;BME280;64266;48.798;44.756;2023-03-14T01:20:18;102711.25;;;2.99;55.86
75668;BME280;64266;48.798;44.756;2023-03-14T01:25:43;102748.06;;;3.08;55.07
75668;BME280;64266;48.798;44.756;2023-03-14T01:31:07;102773.56;;;3.06;54.92
75668;BME280;64266;48.798;44.756;2023-03-14T01:36:28;102747.69;;;2.91;55.69
75668;BME280;64266;48.798;44.756;2023-03-14T01:41:36;102766.88;;;3.02;55.79
75668;BME280;64266;48.798;44.756;2023-03-14T01:46:44;102773.56;;;3.06;55.49
75668;BME280;64266;48.798;44.756;2023-03-14T01:57:17;102778.56;;;3.09;56.22
75668;BME280;64266;48.798;44.756;2023-03-14T02:02:23;102733.78;;;2.79;55.79
75668;BME280;64266;48.798;44.756;2023-03-14T02:07:35;102774.50;;;2.94;56.59
75668;BME280;64266;48.798;44.756;2023-03-14T02:12:48;102747.81;;;2.67;56.97
75668;BME280;64266;48.798;44.756;2023-03-14T02:18:06;102782.38;;;2.94;56.63
75668;BME280;64266;48.798;44.756;2023-03-14T02:23:17;102762.44;;;2.81;56.20
75668;BME280;64266;48.798;44.756;2023-03-14T02:28:22;102780.78;;;2.69;56.16
75668;BME280;64266;48.798;44.756;2023-03-14T02:33:29;102790.03;;;2.62;57.98
75668;BME280;64266;48.798;44.756;2023-03-14T02:44:06;102806.50;;;2.64;58.12
75668;BME280;64266;48.798;44.756;2023-03-14T02:49:12;102794.63;;;2.37;58.52
75668;BME280;64266;48.798;44.756;2023-03-14T02:54:16;102816.22;;;2.51;57.81
75668;BME280;64266;48.798;44.756;2023-03-14T02:59:19;102774.03;;;2.32;58.06
75668;BME280;64266;48.798;44.756;2023-03-14T03:04:29;102805.59;;;2.42;58.24
75668;BME280;64266;48.798;44.756;2023-03-14T03:09:32;102769.47;;;2.23;57.55
75668;BME280;64266;48.798;44.756;2023-03-14T03:14:34;102808.47;;;2.50;57.49
75668;BME280;64266;48.798;44.756;2023-03-14T03:19:38;102837.03;;;2.53;58.33
75668;BME280;64266;48.798;44.756;2023-03-14T03:24:41;102823.34;;;2.49;58.87
75668;BME280;64266;48.798;44.756;2023-03-14T03:29:43;102808.22;;;2.42;58.40
75668;BME280;64266;48.798;44.756;2023-03-14T03:34:46;102798.28;;;2.34;57.87
75668;BME280;64266;48.798;44.756;2023-03-14T03:39:50;102819.44;;;2.55;57.55
75668;BME280;64266;48.798;44.756;2023-03-14T03:44:54;102841.19;;;2.55;57.88
75668;BME280;64266;48.798;44.756;2023-03-14T03:49:58;102798.56;;;2.42;58.60
75668;BME280;64266;48.798;44.756;2023-03-14T03:55:04;102845.81;;;2.76;58.36
75668;BME280;64266;48.798;44.756;2023-03-14T04:00:09;102856.19;;;2.88;58.43
75668;BME280;64266;48.798;44.756;2023-03-14T04:05:16;102818.06;;;2.84;57.75
75668;BME280;64266;48.798;44.756;2023-03-14T04:10:26;102866.88;;;3.31;56.74
75668;BME280;64266;48.798;44.756;2023-03-14T04:15:41;102844.81;;;3.34;56.81
75668;BME280;64266;48.798;44.756;2023-03-14T04:20:58;102792.97;;;3.15;56.28
75668;BME280;64266;48.798;44.756;2023-03-14T04:26:11;102739.47;;;3.06;55.48
75668;BME280;64266;48.798;44.756;2023-03-14T04:31:19;102891.16;;;3.89;56.05
75668;BME280;64266;48.798;44.756;2023-03-14T04:36:23;102892.09;;;3.99;54.97
75668;BME280;64266;48.798;44.756;2023-03-14T04:41:27;102705.03;;;3.22;53.99
75668;BME280;64266;48.798;44.756;2023-03-14T04:46:29;102858.53;;;4.98;53.29
75668;BME280;64266;48.798;44.756;2023-03-14T04:51:33;102900.03;;;6.15;50.17
75668;BME280;64266;48.798;44.756;2023-03-14T04:56:37;102878.34;;;7.07;47.92
75668;BME280;64266;48.798;44.756;2023-03-14T05:01:40;102913.22;;;8.12;45.18
75668;BME280;64266;48.798;44.756;2023-03-14T05:07:02;102902.97;;;9.23;41.83
75668;BME280;64266;48.798;44.756;2023-03-14T05:12:20;102856.56;;;9.70;39.95
75668;BME280;64266;48.798;44.756;2023-03-14T05:17:42;102912.16;;;10.95;38.79
75668;BME280;64266;48.798;44.756;2023-03-14T05:23:19;102866.66;;;11.61;36.58
75668;BME280;64266;48.798;44.756;2023-03-14T05:28:32;102890.13;;;12.27;34.74
75668;BME280;64266;48.798;44.756;2023-03-14T05:34:10;102836.16;;;12.56;33.73
75668;BME280;64266;48.798;44.756;2023-03-14T05:39:25;102903.13;;;13.71;33.19
75668;BME280;64266;48.798;44.756;2023-03-14T05:45:09;102901.97;;;13.95;31.32
75668;BME280;64266;48.798;44.756;2023-03-14T05:50:39;102879.34;;;14.05;30.14
75668;BME280;64266;48.798;44.756;2023-03-14T05:55:58;102885.16;;;14.16;30.13
75668;BME280;64266;48.798;44.756;2023-03-14T06:01:25;102889.69;;;14.51;29.11
75668;BME280;64266;48.798;44.756;2023-03-14T06:06:42;102882.06;;;14.48;27.53
75668;BME280;64266;48.798;44.756;2023-03-14T06:11:46;102907.84;;;14.41;26.80
75668;BME280;64266;48.798;44.756;2023-03-14T06:16:49;102885.94;;;14.67;27.09
75668;BME280;64266;48.798;44.756;2023-03-14T06:21:54;102885.22;;;15.07;25.04
75668;BME280;64266;48.798;44.756;2023-03-14T06:27:01;102901.44;;;14.56;26.75
75668;BME280;64266;48.798;44.756;2023-03-14T06:32:05;102927.09;;;14.22;25.61
75668;BME280;64266;48.798;44.756;2023-03-14T06:37:11;102836.91;;;13.60;26.75
75668;BME280;64266;48.798;44.756;2023-03-14T06:42:15;102823.97;;;13.93;26.64
75668;BME280;64266;48.798;44.756;2023-03-14T06:47:20;102884.25;;;14.65;26.47
75668;BME280;64266;48.798;44.756;2023-03-14T06:52:25;102916.97;;;14.95;25.80
75668;BME280;64266;48.798;44.756;2023-03-14T06:57:28;102911.66;;;14.74;25.31
75668;BME280;64266;48.798;44.756;2023-03-14T07:02:31;102886.50;;;14.05;26.34
75668;BME280;64266;48.798;44.756;2023-03-14T07:08:11;102875.53;;;14.00;26.67
75668;BME280;64266;48.798;44.756;2023-03-14T07:13:14;102900.78;;;13.83;26.26
75668;BME280;64266;48.798;44.756;2023-03-14T07:18:30;102902.28;;;13.41;26.56
75668;BME280;64266;48.798;44.756;2023-03-14T07:23:33;102924.56;;;12.51;28.14
75668;BME280;64266;48.798;44.756;2023-03-14T07:28:36;102904.56;;;12.32;28.20
75668;BME280;64266;48.798;44.756;2023-03-14T07:33:44;102909.81;;;12.18;27.52
75668;BME280;64266;48.798;44.756;2023-03-14T07:38:48;102909.94;;;11.85;28.21
75668;BME280;64266;48.798;44.756;2023-03-14T07:44:01;102886.47;;;11.50;30.21
75668;BME280;64266;48.798;44.756;2023-03-14T07:49:05;102915.44;;;11.13;30.96
75668;BME280;64266;48.798;44.756;2023-03-14T07:54:12;102930.06;;;10.60;31.78
75668;BME280;64266;48.798;44.756;2023-03-14T07:59:14;102896.03;;;10.40;31.90
75668;BME280;64266;48.798;44.756;2023-03-14T08:04:17;102922.34;;;10.17;31.15
75668;BME280;64266;48.798;44.756;2023-03-14T08:09:20;102916.44;;;9.97;31.53
75668;BME280;64266;48.798;44.756;2023-03-14T08:14:23;102901.50;;;9.88;30.78
75668;BME280;64266;48.798;44.756;2023-03-14T08:19:29;102897.72;;;9.57;30.89
75668;BME280;64266;48.798;44.756;2023-03-14T08:24:33;102924.03;;;9.84;30.04
75668;BME280;64266;48.798;44.756;2023-03-14T08:29:41;102880.09;;;9.14;31.97
75668;BME280;64266;48.798;44.756;2023-03-14T08:34:46;102933.19;;;9.64;30.93
75668;BME280;64266;48.798;44.756;2023-03-14T08:39:52;102917.38;;;9.46;30.83
75668;BME280;64266;48.798;44.756;2023-03-14T08:44:58;102883.03;;;9.37;32.50
75668;BME280;64266;48.798;44.756;2023-03-14T08:50:00;102917.72;;;9.85;31.50
75668;BME280;64266;48.798;44.756;2023-03-14T08:55:17;102920.00;;;9.72;30.96
75668;BME280;64266;48.798;44.756;2023-03-14T09:00:21;102932.81;;;9.93;30.36
75668;BME280;64266;48.798;44.756;2023-03-14T09:05:27;102917.47;;;10.04;30.09
75668;BME280;64266;48.798;44.756;2023-03-14T09:10:31;102945.81;;;10.12;30.92
75668;BME280;64266;48.798;44.756;2023-03-14T09:15:35;102930.19;;;10.01;30.72
75668;BME280;64266;48.798;44.756;2023-03-14T09:20:40;102900.50;;;9.81;30.78
75668;BME280;64266;48.798;44.756;2023-03-14T09:25:44;102922.88;;;9.95;31.92
75668;BME280;64266;48.798;44.756;2023-03-14T09:30:48;102885.41;;;9.81;31.09
75668;BME280;64266;48.798;44.756;2023-03-14T09:35:53;102923.59;;;10.05;30.40
75668;BME280;64266;48.798;44.756;2023-03-14T09:40:58;102926.53;;;10.36;29.25
75668;BME280;64266;48.798;44.756;2023-03-14T09:46:04;102905.22;;;10.11;30.29
75668;BME280;64266;48.798;44.756;2023-03-14T09:51:18;102893.13;;;10.09;28.73
75668;BME280;64266;48.798;44.756;2023-03-14T09:56:31;102905.28;;;10.19;27.72
75668;BME280;64266;48.798;44.756;2023-03-14T10:01:36;102914.94;;;10.37;29.44
75668;BME280;64266;48.798;44.756;2023-03-14T10:06:40;102910.47;;;10.61;28.79
75668;BME280;64266;48.798;44.756;2023-03-14T10:11:43;102880.44;;;10.45;28.64
75668;BME280;64266;48.798;44.756;2023-03-14T10:16:48;102877.44;;;10.31;29.12
75668;BME280;64266;48.798;44.756;2023-03-14T10:21:55;102878.78;;;10.36;29.53
75668;BME280;64266;48.798;44.756;2023-03-14T10:27:05;102852.88;;;10.13;29.30
75668;BME280;64266;48.798;44.756;2023-03-14T10:32:19;102883.06;;;10.28;29.19
75668;BME280;64266;48.798;44.756;2023-03-14T10:37:26;102858.38;;;10.20;29.53
75668;BME280;64266;48.798;44.756;2023-03-14T10:42:32;102848.53;;;10.12;29.38
75668;BME280;64266;48.798;44.756;2023-03-14T10:47:48;102879.78;;;10.26;29.28
75668;BME280;64266;48.798;44.756;2023-03-14T10:52:54;102877.00;;;10.60;29.07
75668;BME280;64266;48.798;44.756;2023-03-14T10:58:08;102821.44;;;10.34;28.50
75668;BME280;64266;48.798;44.756;2023-03-14T11:08:54;102845.59;;;10.15;29.59
75668;BME280;64266;48.798;44.756;2023-03-14T11:30:19;102830.53;;;10.40;29.71
75668;BME280;64266;48.798;44.756;2023-03-14T11:40:48;102811.81;;;10.50;28.83
75668;BME280;64266;48.798;44.756;2023-03-14T11:45:52;102816.13;;;10.59;28.89
75668;BME280;64266;48.798;44.756;2023-03-14T11:50:59;102817.44;;;10.63;28.08
75668;BME280;64266;48.798;44.756;2023-03-14T11:56:18;102731.59;;;10.15;28.62
75668;BME280;64266;48.798;44.756;2023-03-14T12:06:56;102779.97;;;10.50;29.30
75668;BME280;64266;48.798;44.756;2023-03-14T12:12:02;102800.53;;;10.48;28.64
75668;BME280;64266;48.798;44.756;2023-03-14T12:17:36;102764.41;;;10.22;29.10
75668;BME280;64266;48.798;44.756;2023-03-14T12:22:46;102765.06;;;10.24;28.88
75668;BME280;64266;48.798;44.756;2023-03-14T12:38:48;102739.38;;;10.41;28.65
75668;BME280;64266;48.798;44.756;2023-03-14T12:43:55;102740.22;;;10.42;28.82
75668;BME280;64266;48.798;44.756;2023-03-14T13:05:01;102759.56;;;10.58;28.93
75668;BME280;64266;48.798;44.756;2023-03-14T13:15:19;102752.97;;;10.38;27.45
75668;BME280;64266;48.798;44.756;2023-03-14T13:20:44;102741.38;;;10.39;26.40
75668;BME280;64266;48.798;44.756;2023-03-14T13:25:51;102737.25;;;10.37;26.47
75668;BME280;64266;48.798;44.756;2023-03-14T13:30:58;102742.88;;;10.33;25.06
75668;BME280;64266;48.798;44.756;2023-03-14T13:36:04;102721.97;;;10.30;25.93
75668;BME280;64266;48.798;44.756;2023-03-14T13:41:11;102664.16;;;9.77;25.53
75668;BME280;64266;48.798;44.756;2023-03-14T13:46:16;102750.84;;;10.33;26.56
75668;BME280;64266;48.798;44.756;2023-03-14T13:51:23;102733.75;;;10.28;26.97
75668;BME280;64266;48.798;44.756;2023-03-14T13:56:31;102736.56;;;10.18;27.51
75668;BME280;64266;48.798;44.756;2023-03-14T14:01:36;102744.88;;;10.23;27.32
75668;BME280;64266;48.798;44.756;2023-03-14T14:07:01;102706.72;;;10.00;28.37
75668;BME280;64266;48.798;44.756;2023-03-14T14:22:37;102725.78;;;9.96;29.67
75668;BME280;64266;48.798;44.756;2023-03-14T14:27:46;102724.09;;;9.78;29.44
75668;BME280;64266;48.798;44.756;2023-03-14T14:32:50;102726.59;;;9.72;29.70
75668;BME280;64266;48.798;44.756;2023-03-14T14:37:53;102755.03;;;9.70;29.55
75668;BME280;64266;48.798;44.756;2023-03-14T14:43:04;102730.69;;;9.58;29.02
75668;BME280;64266;48.798;44.756;2023-03-14T14:48:12;102739.94;;;9.54;28.94
75668;BME280;64266;48.798;44.756;2023-03-14T14:53:36;102745.94;;;9.56;26.95
75668;BME280;64266;48.798;44.756;2023-03-14T14:58:45;102731.47;;;9.35;26.25
75668;BME280;64266;48.798;44.756;2023-03-14T15:03:53;102752.28;;;9.30;27.00
75668;BME280;64266;48.798;44.756;2023-03-14T15:08:57;102734.19;;;9.17;27.18
75668;BME280;64266;48.798;44.756;2023-03-14T15:13:59;102757.88;;;9.18;27.86
75668;BME280;64266;48.798;44.756;2023-03-14T15:19:10;102758.16;;;9.07;28.86
75668;BME280;64266;48.798;44.756;2023-03-14T15:24:25;102749.13;;;8.92;28.65
75668;BME280;64266;48.798;44.756;2023-03-14T15:29:28;102719.44;;;8.73;28.75
75668;BME280;64266;48.798;44.756;2023-03-14T15:34:31;102755.88;;;8.87;29.36
75668;BME280;64266;48.798;44.756;2023-03-14T15:39:34;102764.31;;;8.82;29.47
75668;BME280;64266;48.798;44.756;2023-03-14T15:44:37;102750.69;;;8.77;28.82
75668;BME280;64266;48.798;44.756;2023-03-14T15:49:40;102735.56;;;8.61;28.70
75668;BME280;64266;48.798;44.756;2023-03-14T15:54:43;102741.16;;;8.58;28.46
75668;BME280;64266;48.798;44.756;2023-03-14T15:59:45;102738.88;;;8.38;29.07
75668;BME280;64266;48.798;44.756;2023-03-14T16:04:48;102744.03;;;8.39;30.04
75668;BME280;64266;48.798;44.756;2023-03-14T16:09:51;102730.59;;;8.33;29.62
75668;BME280;64266;48.798;44.756;2023-03-14T16:14:53;102731.19;;;8.27;29.34
75668;BME280;64266;48.798;44.756;2023-03-14T16:19:56;102722.81;;;8.13;29.44
75668;BME280;64266;48.798;44.756;2023-03-14T16:24:58;102711.19;;;8.06;29.57
75668;BME280;64266;48.798;44.756;2023-03-14T16:30:01;102752.41;;;8.17;29.99
75668;BME280;64266;48.798;44.756;2023-03-14T16:35:05;102728.66;;;7.99;30.00
75668;BME280;64266;48.798;44.756;2023-03-14T16:40:08;102718.91;;;7.82;30.94
75668;BME280;64266;48.798;44.756;2023-03-14T16:45:15;102760.94;;;7.93;31.46
75668;BME280;64266;48.798;44.756;2023-03-14T16:50:20;102724.41;;;7.71;31.05
75668;BME280;64266;48.798;44.756;2023-03-14T16:55:23;102734.28;;;7.69;31.81
75668;BME280;64266;48.798;44.756;2023-03-14T17:00:25;102771.06;;;7.80;32.37
75668;BME280;64266;48.798;44.756;2023-03-14T17:05:29;102747.28;;;7.62;31.94
75668;BME280;64266;48.798;44.756;2023-03-14T17:10:33;102777.22;;;7.71;32.19
75668;BME280;64266;48.798;44.756;2023-03-14T17:15:37;102757.47;;;7.48;32.68
75668;BME280;64266;48.798;44.756;2023-03-14T17:20:40;102778.47;;;7.49;33.46
75668;BME280;64266;48.798;44.756;2023-03-14T17:25:45;102799.00;;;7.55;32.59
75668;BME280;64266;48.798;44.756;2023-03-14T17:30:48;102792.75;;;7.56;33.58
75668;BME280;64266;48.798;44.756;2023-03-14T17:35:52;102768.09;;;7.38;33.78
75668;BME280;64266;48.798;44.756;2023-03-14T17:40:55;102783.78;;;7.40;33.62
75668;BME280;64266;48.798;44.756;2023-03-14T17:45:59;102772.75;;;7.27;34.30
75668;BME280;64266;48.798;44.756;2023-03-14T17:51:03;102732.22;;;6.91;33.60
75668;BME280;64266;48.798;44.756;2023-03-14T17:56:07;102791.78;;;7.21;33.11
75668;BME280;64266;48.798;44.756;2023-03-14T18:06:16;102777.09;;;6.81;33.88
75668;BME280;64266;48.798;44.756;2023-03-14T18:11:19;102736.09;;;6.50;35.47
75668;BME280;64266;48.798;44.756;2023-03-14T18:16:21;102786.53;;;6.74;35.33
75668;BME280;64266;48.798;44.756;2023-03-14T18:21:24;102791.69;;;6.66;35.18
75668;BME280;64266;48.798;44.756;2023-03-14T18:26:27;102742.09;;;6.33;35.95
75668;BME280;64266;48.798;44.756;2023-03-14T18:31:30;102770.50;;;6.48;36.24
75668;BME280;64266;48.798;44.756;2023-03-14T18:36:37;102756.25;;;6.22;35.97
75668;BME280;64266;48.798;44.756;2023-03-14T18:41:39;102767.22;;;6.27;36.29
75668;BME280;64266;48.798;44.756;2023-03-14T18:46:42;102782.56;;;6.32;37.38
75668;BME280;64266;48.798;44.756;2023-03-14T18:51:44;102781.63;;;6.33;36.21
75668;BME280;64266;48.798;44.756;2023-03-14T18:56:47;102785.91;;;6.34;37.31
75668;BME280;64266;48.798;44.756;2023-03-14T19:01:49;102779.09;;;6.31;37.48
75668;BME280;64266;48.798;44.756;2023-03-14T19:06:51;102754.88;;;6.18;36.81
75668;BME280;64266;48.798;44.756;2023-03-14T19:11:55;102764.41;;;6.29;37.38
75668;BME280;64266;48.798;44.756;2023-03-14T19:16:57;102762.75;;;6.28;37.34
75668;BME280;64266;48.798;44.756;2023-03-14T19:21:59;102763.47;;;6.30;37.59
75668;BME280;64266;48.798;44.756;2023-03-14T19:27:02;102725.06;;;6.08;37.34
75668;BME280;64266;48.798;44.756;2023-03-14T19:32:05;102758.88;;;6.22;37.77
75668;BME280;64266;48.798;44.756;2023-03-14T19:37:09;102731.69;;;6.12;37.33
75668;BME280;64266;48.798;44.756;2023-03-14T19:42:11;102760.94;;;6.09;38.39
75668;BME280;64266;48.798;44.756;2023-03-14T19:47:14;102746.13;;;5.98;37.91
75668;BME280;64266;48.798;44.756;2023-03-14T19:52:16;102739.63;;;5.93;38.04
75668;BME280;64266;48.798;44.756;2023-03-14T19:57:19;102714.09;;;5.74;38.20
75668;BME280;64266;48.798;44.756;2023-03-14T20:02:22;102721.28;;;5.72;38.69
75668;BME280;64266;48.798;44.756;2023-03-14T20:07:25;102726.13;;;5.67;38.56
75668;BME280;64266;48.798;44.756;2023-03-14T20:12:30;102680.81;;;5.35;38.79
75668;BME280;64266;48.798;44.756;2023-03-14T20:17:33;102717.25;;;5.49;38.77
75668;BME280;64266;48.798;44.756;2023-03-14T20:22:39;102689.78;;;5.23;39.52
75668;BME280;64266;48.798;44.756;2023-03-14T20:27:45;102695.97;;;5.12;39.38
75668;BME280;64266;48.798;44.756;2023-03-14T20:32:49;102715.91;;;5.15;40.35
75668;BME280;64266;48.798;44.756;2023-03-14T20:37:53;102745.94;;;5.12;40.71
75668;BME280;64266;48.798;44.756;2023-03-14T20:42:58;102727.06;;;4.98;41.52
75668;BME280;64266;48.798;44.756;2023-03-14T20:48:01;102728.13;;;4.85;42.15
75668;BME280;64266;48.798;44.756;2023-03-14T20:53:04;102694.25;;;4.62;42.63
75668;BME280;64266;48.798;44.756;2023-03-14T20:58:06;102729.91;;;4.85;42.49
75668;BME280;64266;48.798;44.756;2023-03-14T21:03:09;102733.50;;;4.84;43.59
75668;BME280;64266;48.798;44.756;2023-03-14T21:08:17;102688.81;;;4.54;43.10
75668;BME280;64266;48.798;44.756;2023-03-14T21:13:22;102712.78;;;4.60;44.45
75668;BME280;64266;48.798;44.756;2023-03-14T21:18:25;102654.56;;;4.34;44.64
75668;BME280;64266;48.798;44.756;2023-03-14T21:23:28;102652.97;;;4.22;44.47
75668;BME280;64266;48.798;44.756;2023-03-14T21:28:31;102641.97;;;4.08;44.95
75668;BME280;64266;48.798;44.756;2023-03-14T21:33:34;102671.69;;;4.29;45.60
75668;BME280;64266;48.798;44.756;2023-03-14T21:38:36;102679.03;;;4.35;46.16
75668;BME280;64266;48.798;44.756;2023-03-14T21:43:42;102672.38;;;4.31;45.37
75668;BME280;64266;48.798;44.756;2023-03-14T21:48:47;102658.06;;;4.14;45.53
75668;BME280;64266;48.798;44.756;2023-03-14T21:53:50;102675.25;;;4.28;45.24
75668;BME280;64266;48.798;44.756;2023-03-14T21:58:53;102680.50;;;4.28;45.25
75668;BME280;64266;48.798;44.756;2023-03-14T22:04:01;102628.22;;;3.95;45.25
75668;BME280;64266;48.798;44.756;2023-03-14T22:09:04;102659.59;;;4.17;44.94
75668;BME280;64266;48.798;44.756;2023-03-14T22:14:07;102656.56;;;4.01;46.08
75668;BME280;64266;48.798;44.756;2023-03-14T22:19:11;102652.34;;;3.89;46.12
75668;BME280;64266;48.798;44.756;2023-03-14T22:24:13;102636.34;;;3.92;46.61
75668;BME280;64266;48.798;44.756;2023-03-14T22:29:16;102637.75;;;3.96;45.79
75668;BME280;64266;48.798;44.756;2023-03-14T22:34:19;102626.50;;;3.84;45.67
75668;BME280;64266;48.798;44.756;2023-03-14T22:39:23;102636.53;;;3.79;46.28
75668;BME280;64266;48.798;44.756;2023-03-14T22:44:26;102619.66;;;3.72;46.61
75668;BME280;64266;48.798;44.756;2023-03-14T22:49:34;102603.34;;;3.57;45.94
75668;BME280;64266;48.798;44.756;2023-03-14T22:54:37;102617.97;;;3.71;45.32
75668;BME280;64266;48.798;44.756;2023-03-14T22:59:40;102560.28;;;3.39;45.22
75668;BME280;64266;48.798;44.756;2023-03-14T23:04:43;102613.09;;;3.66;45.79
75668;BME280;64266;48.798;44.756;2023-03-14T23:09:46;102623.97;;;3.62;45.85
75668;BME280;64266;48.798;44.756;2023-03-14T23:14:50;102594.78;;;3.55;45.10
75668;BME280;64266;48.798;44.756;2023-03-14T23:19:52;102605.94;;;3.68;44.95
75668;BME280;64266;48.798;44.756;2023-03-14T23:24:55;102579.91;;;3.56;44.99
75668;BME280;64266;48.798;44.756;2023-03-14T23:29:58;102552.19;;;3.42;45.71
75668;BME280;64266;48.798;44.756;2023-03-14T23:35:01;102567.53;;;3.47;45.32
75668;BME280;64266;48.798;44.756;2023-03-14T23:40:05;102582.63;;;3.54;45.58
75668;BME280;64266;48.798;44.756;2023-03-14T23:45:08;102581.25;;;3.71;45.12
75668;BME280;64266;48.798;44.756;2023-03-14T23:50:11;102568.69;;;3.54;45.94
75668;BME280;64266;48.798;44.756;2023-03-14T23:55:14;102556.91;;;3.48;45.72
